Time;durP1;ratioP1;P1;durP2;ratioP2;P2;SDS_P1;SDS_P2;PMS_P1;PMS_P2;Temp;Humidity;BMP_temperature;BMP_pressure;BME280_temperature;BME280_humidity;BME280_pressure;Samples;Min_cycle;Max_cycle;Signal;HPM_P1;HPM_P2
2022/01/14 00:01:18;;;;;;;9.73;5.72;;;21.10;54.50;;;;;;4935469;28;87546;-85
2022/01/14 00:03:44;;;;;;;9.05;6.05;;;21.10;54.50;;;;;;4934619;28;87326;-85
2022/01/14 00:06:10;;;;;;;8.93;5.85;;;21.10;54.50;;;;;;4934111;28;87205;-86
2022/01/14 00:08:36;;;;;;;6.95;5.70;;;21.10;54.50;;;;;;4935393;28;87292;-85
2022/01/14 00:11:03;;;;;;;6.32;5.22;;;21.10;54.60;;;;;;4934476;28;88677;-85
2022/01/14 00:13:51;;;;;;;5.80;5.10;;;21.10;54.60;;;;;;4934860;28;88354;-84
2022/01/14 00:16:18;;;;;;;6.57;5.38;;;21.10;54.50;;;;;;4935368;28;87470;-85
2022/01/14 00:19:02;;;;;;;7.63;5.95;;;21.00;54.50;;;;;;4936443;28;87271;-85
2022/01/14 00:21:28;;;;;;;6.70;5.50;;;21.00;54.50;;;;;;4936217;28;88186;-86
2022/01/14 00:24:06;;;;;;;9.32;6.05;;;21.00;54.50;;;;;;4951078;28;90240;-84
2022/01/14 00:32:09;;;;;;;9.57;6.07;;;21.00;54.30;;;;;;4935214;28;87401;-85
2022/01/14 00:34:35;;;;;;;8.32;5.82;;;21.00;54.50;;;;;;4935544;28;88056;-84
2022/01/14 00:37:01;;;;;;;6.05;4.95;;;21.00;54.50;;;;;;4935098;28;88732;-85
2022/01/14 00:39:27;;;;;;;8.43;5.78;;;21.00;54.30;;;;;;4936073;28;88119;-85
2022/01/14 00:41:53;;;;;;;7.03;5.05;;;21.00;54.40;;;;;;4935646;28;87726;-84
2022/01/14 00:44:20;;;;;;;6.28;4.97;;;20.90;54.30;;;;;;4936425;28;87550;-85
2022/01/14 00:46:47;;;;;;;6.95;5.57;;;20.90;54.20;;;;;;4933910;28;87470;-85
2022/01/14 00:49:14;;;;;;;5.05;4.53;;;20.90;54.20;;;;;;4949596;28;88768;-84
2022/01/14 00:51:41;;;;;;;7.15;5.13;;;20.90;54.20;;;;;;4934652;28;87376;-86
2022/01/14 00:54:07;;;;;;;7.18;5.72;;;20.90;54.30;;;;;;4935269;28;87674;-83
2022/01/14 00:59:17;;;;;;;8.35;6.30;;;20.90;54.10;;;;;;4935060;28;87623;-82
2022/01/14 01:01:48;;;;;;;8.50;6.18;;;20.90;54.10;;;;;;4948331;28;90646;-85
2022/01/14 01:04:20;;;;;;;7.05;5.38;;;20.90;54.10;;;;;;4934997;28;88085;-85
2022/01/14 01:06:47;;;;;;;6.32;5.50;;;20.90;54.10;;;;;;4934795;28;87539;-85
2022/01/14 01:09:14;;;;;;;6.00;5.40;;;20.90;54.00;;;;;;4934593;28;87219;-84
2022/01/14 01:11:47;;;;;;;7.18;5.00;;;20.90;54.00;;;;;;4932932;28;87054;-84
2022/01/14 01:14:19;;;;;;;7.05;5.05;;;20.80;54.00;;;;;;4932934;28;88409;-85
2022/01/14 01:16:45;;;;;;;6.90;5.40;;;20.80;53.90;;;;;;4932887;28;87892;-83
2022/01/14 01:19:11;;;;;;;5.68;5.05;;;20.80;53.70;;;;;;4933062;28;87352;-85
2022/01/14 01:21:37;;;;;;;7.57;5.72;;;20.80;53.90;;;;;;4932521;28;87803;-85
2022/01/14 01:24:03;;;;;;;6.72;5.03;;;20.80;54.00;;;;;;4932315;28;87338;-85
2022/01/14 01:26:41;;;;;;;7.90;5.60;;;20.80;53.90;;;;;;4931283;28;88710;-84
2022/01/14 01:31:40;;;;;;;7.40;5.47;;;20.80;53.80;;;;;;4931417;28;88725;-84
2022/01/14 01:34:07;;;;;;;7.10;5.55;;;20.80;53.60;;;;;;4945716;28;89866;-85
2022/01/14 01:36:33;;;;;;;6.50;4.97;;;20.80;53.70;;;;;;4930781;28;87626;-84
2022/01/14 01:38:58;;;;;;;7.20;5.30;;;20.80;53.80;;;;;;4932289;28;86911;-86
2022/01/14 01:41:24;;;;;;;6.80;5.03;;;20.80;53.60;;;;;;4930768;28;87865;-84
2022/01/14 01:43:53;;;;;;;6.47;5.47;;;20.80;53.80;;;;;;4931019;28;87305;-85
2022/01/14 01:46:20;;;;;;;7.07;4.88;;;20.70;53.70;;;;;;4946637;28;86910;-86
2022/01/14 01:48:47;;;;;;;6.15;5.30;;;20.70;53.60;;;;;;4932273;28;87141;-85
2022/01/14 01:51:13;;;;;;;7.20;5.38;;;20.70;53.70;;;;;;4931450;28;88508;-84
2022/01/14 01:53:39;;;;;;;5.28;4.60;;;20.70;53.50;;;;;;4931353;28;88587;-85
2022/01/14 01:56:05;;;;;;;6.25;5.22;;;20.70;53.60;;;;;;4931294;28;87827;-84
2022/01/14 01:58:33;;;;;;;5.22;4.60;;;20.70;53.70;;;;;;4930838;28;87462;-85
2022/01/14 02:01:04;;;;;;;5.03;4.38;;;20.70;53.50;;;;;;4930675;28;88239;-84
2022/01/14 02:03:30;;;;;;;6.60;5.18;;;20.70;53.50;;;;;;4929953;28;87148;-85
2022/01/14 02:05:55;;;;;;;6.28;5.10;;;20.70;53.60;;;;;;4930443;28;88380;-86
2022/01/14 02:08:21;;;;;;;5.70;4.90;;;20.70;53.70;;;;;;4932006;28;87401;-84
2022/01/14 02:10:47;;;;;;;6.22;5.50;;;20.60;53.40;;;;;;4931039;28;86887;-85
2022/01/14 02:13:12;;;;;;;6.20;5.32;;;20.70;53.50;;;;;;4929755;28;90186;-86
2022/01/14 02:18:30;;;;;;;6.57;5.07;;;20.60;53.40;;;;;;4929764;28;87871;-86
2022/01/14 02:23:47;;;;;;;5.75;4.68;;;20.60;53.30;;;;;;4930795;28;87558;-85
2022/01/14 02:26:17;;;;;;;6.63;4.85;;;20.60;53.50;;;;;;4931274;28;88922;-84
2022/01/14 02:28:43;;;;;;;5.72;4.70;;;20.60;53.40;;;;;;4931738;28;88147;-85
2022/01/14 02:31:09;;;;;;;6.10;4.93;;;20.60;53.30;;;;;;4931065;28;88199;-84
2022/01/14 02:33:35;;;;;;;6.10;4.95;;;20.60;53.20;;;;;;4930324;28;90178;-83
2022/01/14 02:36:03;;;;;;;6.43;5.10;;;20.60;53.10;;;;;;4930560;28;87471;-85
2022/01/14 02:38:29;;;;;;;5.97;4.97;;;20.60;53.20;;;;;;4930584;28;87749;-83
2022/01/14 02:40:56;;;;;;;5.60;4.63;;;20.60;53.30;;;;;;4930615;28;88850;-84
2022/01/14 02:43:22;;;;;;;6.40;5.20;;;20.60;53.20;;;;;;4930230;28;89531;-84
2022/01/14 02:45:52;;;;;;;5.68;4.78;;;20.60;53.30;;;;;;4930524;28;87997;-83
2022/01/14 02:48:19;;;;;;;5.70;4.65;;;20.60;53.30;;;;;;4930109;28;87118;-85
2022/01/14 02:51:07;;;;;;;5.00;4.45;;;20.50;53.20;;;;;;4930356;28;87659;-85
2022/01/14 02:56:04;;;;;;;6.15;4.93;;;20.50;53.20;;;;;;4930350;28;87429;-84
2022/01/14 02:58:31;;;;;;;5.57;4.70;;;20.50;53.20;;;;;;4931103;28;87180;-84
2022/01/14 03:01:06;;;;;;;5.22;4.38;;;20.50;53.10;;;;;;4930636;28;87960;-86
2022/01/14 03:03:32;;;;;;;5.47;4.90;;;20.50;53.10;;;;;;4945031;28;90488;-85
2022/01/14 03:05:59;;;;;;;5.35;4.30;;;20.50;53.10;;;;;;4929231;28;88143;-84
2022/01/14 03:08:25;;;;;;;6.28;4.90;;;20.40;53.10;;;;;;4930357;28;87386;-85
2022/01/14 03:11:08;;;;;;;4.82;4.32;;;20.40;53.00;;;;;;4930084;28;88455;-82
2022/01/14 03:13:34;;;;;;;5.85;4.78;;;20.50;53.00;;;;;;4928606;28;89838;-85
2022/01/14 03:16:01;;;;;;;5.05;4.38;;;20.40;52.80;;;;;;4929681;28;87362;-85
2022/01/14 03:18:41;;;;;;;6.03;4.88;;;20.40;52.90;;;;;;4929149;28;89419;-84
2022/01/14 03:21:11;;;;;;;5.10;4.40;;;20.50;52.90;;;;;;4931122;28;88103;-84
2022/01/14 03:23:45;;;;;;;4.95;4.45;;;20.40;52.90;;;;;;4932568;28;89382;-85
2022/01/14 03:26:13;;;;;;;5.28;4.28;;;20.40;52.90;;;;;;4933705;28;87519;-84
2022/01/14 03:28:38;;;;;;;6.15;4.78;;;20.40;52.90;;;;;;4932857;28;87154;-83
2022/01/14 03:31:05;;;;;;;5.78;4.38;;;20.40;52.80;;;;;;4948317;28;91484;-85
2022/01/14 03:33:30;;;;;;;4.97;4.30;;;20.40;52.90;;;;;;4933863;28;88740;-84
2022/01/14 03:36:05;;;;;;;5.72;5.10;;;20.40;52.90;;;;;;4933524;28;87655;-84
2022/01/14 03:38:30;;;;;;;4.72;4.22;;;20.40;52.90;;;;;;4933910;28;87186;-85
2022/01/14 03:40:56;;;;;;;5.30;4.15;;;20.40;52.80;;;;;;4933219;28;87925;-86
2022/01/14 03:43:22;;;;;;;5.72;4.50;;;20.40;52.90;;;;;;4933690;28;87670;-85
2022/01/14 03:45:50;;;;;;;6.80;4.22;;;20.40;52.80;;;;;;4933297;28;88074;-84
2022/01/14 03:48:16;;;;;;;5.55;4.63;;;20.40;52.90;;;;;;4933244;28;87008;-85
2022/01/14 03:50:42;;;;;;;6.03;4.63;;;20.40;53.00;;;;;;4933821;28;87710;-85
2022/01/14 03:53:10;;;;;;;4.88;4.15;;;20.30;52.80;;;;;;4933183;28;87957;-84
2022/01/14 03:55:40;;;;;;;5.68;4.30;;;20.30;52.60;;;;;;4933479;28;88481;-86
2022/01/14 03:58:07;;;;;;;5.00;4.28;;;20.30;52.70;;;;;;4931878;28;87983;-84
2022/01/14 04:00:33;;;;;;;4.93;3.95;;;20.30;52.70;;;;;;4932748;28;87246;-85
2022/01/14 04:02:58;;;;;;;6.32;4.68;;;20.30;52.80;;;;;;4932955;28;87765;-85
2022/01/14 04:05:24;;;;;;;4.90;4.40;;;20.30;52.70;;;;;;4933002;28;87251;-85
2022/01/14 04:07:50;;;;;;;5.53;4.43;;;20.30;52.60;;;;;;4933333;28;87643;-86
2022/01/14 04:10:17;;;;;;;4.72;4.22;;;20.30;52.70;;;;;;4932340;28;89249;-84
2022/01/14 04:12:59;;;;;;;5.22;4.20;;;20.30;52.70;;;;;;4933894;28;87767;-83
2022/01/14 04:15:37;;;;;;;5.18;4.45;;;20.30;52.60;;;;;;4933223;28;88012;-84
2022/01/14 04:18:08;;;;;;;5.47;4.50;;;20.30;52.60;;;;;;4932912;28;87365;-83
2022/01/14 04:20:36;;;;;;;6.35;4.63;;;20.20;52.40;;;;;;4947324;28;91822;-84
2022/01/14 04:23:02;;;;;;;4.32;3.90;;;20.30;52.40;;;;;;4933243;28;88385;-84
2022/01/14 04:25:28;;;;;;;4.88;4.22;;;20.20;53.00;;;;;;4933345;28;86982;-82
2022/01/14 04:27:53;;;;;;;4.82;4.32;;;20.30;52.30;;;;;;4932751;28;87716;-86
2022/01/14 04:30:20;;;;;;;5.15;4.30;;;20.30;52.30;;;;;;4932754;28;88761;-84
2022/01/14 04:32:45;;;;;;;4.75;4.30;;;20.20;52.30;;;;;;4930882;28;87893;-83
2022/01/14 04:35:12;;;;;;;5.47;4.20;;;20.20;52.20;;;;;;4931873;28;87885;-85
2022/01/14 04:37:58;;;;;;;4.88;4.38;;;20.20;52.40;;;;;;4932134;28;87219;-84
2022/01/14 04:40:24;;;;;;;5.15;4.13;;;20.20;52.40;;;;;;4932146;28;90677;-86
2022/01/14 04:42:51;;;;;;;5.55;4.65;;;20.20;52.30;;;;;;4975865;22;88214;-86
2022/01/14 04:48:04;;;;;;;4.30;3.90;;;20.20;52.40;;;;;;4930650;28;87644;-89
2022/01/14 04:50:30;;;;;;;4.93;4.43;;;20.20;52.30;;;;;;4931292;28;88037;-88
2022/01/14 04:52:55;;;;;;;4.95;4.05;;;20.20;52.30;;;;;;4932444;28;87701;-87
2022/01/14 04:55:24;;;;;;;4.80;4.07;;;20.10;52.20;;;;;;4932326;28;87872;-89
2022/01/14 04:57:50;;;;;;;4.40;4.00;;;20.20;52.20;;;;;;4930781;28;86956;-88
2022/01/14 05:00:24;;;;;;;4.20;3.80;;;20.10;52.30;;;;;;4914907;28;90730;-87
2022/01/14 05:02:52;;;;;;;5.45;4.60;;;20.10;52.10;;;;;;4933185;28;87662;-85
2022/01/14 05:05:20;;;;;;;5.07;4.17;;;20.10;52.10;;;;;;4932333;28;87664;-85
2022/01/14 05:07:47;;;;;;;4.45;3.90;;;20.10;52.00;;;;;;4913538;28;87846;-85
2022/01/14 05:12:45;;;;;;;3.92;3.53;;;20.10;52.00;;;;;;4932377;28;88017;-88
2022/01/14 05:15:13;;;;;;;4.30;3.90;;;20.10;52.10;;;;;;4931901;28;88215;-90
2022/01/14 05:17:38;;;;;;;4.65;4.18;;;20.10;52.10;;;;;;4931508;28;86873;-86
2022/01/14 05:20:05;;;;;;;5.07;4.07;;;20.10;52.10;;;;;;4931740;28;88175;-87
2022/01/14 05:22:31;;;;;;;4.95;4.03;;;20.10;51.90;;;;;;4930258;28;89318;-87
2022/01/14 05:24:57;;;;;;;4.68;4.18;;;20.10;52.00;;;;;;4932450;28;87059;-88
2022/01/14 05:27:23;;;;;;;4.05;3.65;;;20.10;51.90;;;;;;4931978;28;86703;-88
2022/01/14 05:29:49;;;;;;;4.60;4.13;;;20.00;51.90;;;;;;4932582;28;88329;-89
2022/01/14 05:32:15;;;;;;;4.45;4.05;;;20.10;52.00;;;;;;4931496;28;87041;-87
2022/01/14 05:34:43;;;;;;;3.97;3.63;;;20.00;51.80;;;;;;4930512;28;88627;-86
2022/01/14 05:37:09;;;;;;;4.32;3.72;;;20.00;51.80;;;;;;4913821;28;89648;-85
2022/01/14 05:39:37;;;;;;;4.00;3.60;;;20.00;51.90;;;;;;4931384;28;88120;-85
2022/01/14 05:42:03;;;;;;;4.35;3.90;;;20.00;51.80;;;;;;4931222;28;87651;-86
2022/01/14 05:44:30;;;;;;;4.05;3.63;;;20.00;51.90;;;;;;4929837;28;87226;-84
2022/01/14 05:46:58;;;;;;;3.78;3.47;;;20.00;51.60;;;;;;4930606;28;87383;-85
2022/01/14 05:49:25;;;;;;;4.45;3.83;;;20.00;51.70;;;;;;4929797;28;87779;-84
2022/01/14 05:51:50;;;;;;;4.40;3.63;;;20.00;52.10;;;;;;4931912;28;87850;-85
2022/01/14 05:54:17;;;;;;;5.43;4.30;;;20.00;51.80;;;;;;4932014;28;87463;-86
2022/01/14 05:56:43;;;;;;;3.88;3.53;;;20.00;51.80;;;;;;4931114;28;89229;-84
2022/01/14 05:59:10;;;;;;;4.47;4.07;;;19.90;51.70;;;;;;4930743;28;88492;-85
2022/01/14 06:01:36;;;;;;;3.92;3.53;;;20.00;51.70;;;;;;4913968;28;91201;-88
2022/01/14 06:04:02;;;;;;;4.38;3.70;;;20.00;51.80;;;;;;4930744;28;87637;-85
2022/01/14 06:06:29;;;;;;;4.43;3.97;;;20.00;51.70;;;;;;4930536;28;87668;-87
2022/01/14 06:08:54;;;;;;;4.07;3.67;;;19.90;51.70;;;;;;4929454;28;91017;-88
2022/01/14 06:11:20;;;;;;;4.10;3.65;;;19.90;51.60;;;;;;4931404;28;86927;-88
2022/01/14 06:13:46;;;;;;;4.82;4.00;;;19.90;51.60;;;;;;4931637;28;87458;-86
2022/01/14 06:16:12;;;;;;;4.25;3.67;;;19.90;51.60;;;;;;4931137;28;86706;-86
2022/01/14 06:18:38;;;;;;;4.70;4.05;;;19.90;52.00;;;;;;4930449;28;87730;-86
2022/01/14 06:21:04;;;;;;;4.43;3.88;;;19.90;51.80;;;;;;4930327;28;87623;-88
2022/01/14 06:23:31;;;;;;;5.18;4.55;;;19.90;51.80;;;;;;4930677;28;88361;-88
2022/01/14 06:25:56;;;;;;;5.47;4.20;;;19.90;52.80;;;;;;4931211;28;87088;-87
2022/01/14 06:28:22;;;;;;;4.90;3.95;;;20.00;52.60;;;;;;4930835;28;87657;-88
2022/01/14 06:30:48;;;;;;;5.50;4.32;;;20.00;52.40;;;;;;4930491;28;87450;-87
2022/01/14 06:33:14;;;;;;;6.03;4.22;;;20.00;52.80;;;;;;4913277;28;87643;-85
2022/01/14 06:35:39;;;;;;;5.07;4.22;;;20.10;52.60;;;;;;4928019;28;89215;-89
2022/01/14 06:38:05;;;;;;;4.38;3.90;;;20.20;52.80;;;;;;4913074;28;90189;-84
2022/01/14 06:40:32;;;;;;;4.88;3.90;;;20.20;52.70;;;;;;4930985;28;87298;-87
2022/01/14 06:42:58;;;;;;;8.57;4.05;;;20.20;52.60;;;;;;4930492;28;89265;-85
2022/01/14 06:45:23;;;;;;;4.43;3.67;;;20.30;53.20;;;;;;4930823;28;87701;-86
2022/01/14 06:47:50;;;;;;;6.70;4.60;;;20.30;52.80;;;;;;4930162;28;88699;-85
2022/01/14 06:50:16;;;;;;;6.70;3.70;;;20.30;52.30;;;;;;4930801;28;88752;-85
2022/01/14 06:52:42;;;;;;;5.05;4.05;;;20.40;52.00;;;;;;4931063;28;87532;-83
2022/01/14 06:55:08;;;;;;;5.15;3.80;;;20.40;51.80;;;;;;4930675;28;89263;-84
2022/01/14 06:57:35;;;;;;;5.40;3.70;;;20.40;51.70;;;;;;4933180;28;88725;-86
2022/01/14 07:00:08;;;;;;;5.63;3.90;;;20.50;51.50;;;;;;4916949;28;90474;-83
2022/01/14 07:02:33;;;;;;;5.15;3.58;;;20.50;51.50;;;;;;4932727;28;88202;-85
2022/01/14 07:04:59;;;;;;;4.78;3.80;;;20.50;51.70;;;;;;4915595;28;89207;-83
2022/01/14 07:07:25;;;;;;;6.43;4.10;;;20.50;51.30;;;;;;4932853;28;87325;-87
2022/01/14 07:09:59;;;;;;;8.77;4.63;;;20.60;51.50;;;;;;4932075;28;88425;-83
2022/01/14 07:12:30;;;;;;;5.38;4.07;;;20.60;51.10;;;;;;4932888;28;87838;-83
2022/01/14 07:14:56;;;;;;;4.47;3.95;;;20.60;51.20;;;;;;4933316;28;87910;-85
2022/01/14 07:17:23;;;;;;;4.20;3.70;;;20.60;51.20;;;;;;4915932;28;90339;-84
2022/01/14 07:19:52;;;;;;;6.93;3.95;;;20.60;50.90;;;;;;4933127;28;87809;-84
2022/01/14 07:22:17;;;;;;;5.67;3.67;;;20.60;50.90;;;;;;4915954;28;87519;-83
2022/01/14 07:24:43;;;;;;;4.05;3.65;;;20.60;51.30;;;;;;4933030;28;87387;-83
2022/01/14 07:27:09;;;;;;;3.95;3.53;;;20.60;51.10;;;;;;4932680;28;87638;-82
2022/01/14 07:29:34;;;;;;;7.22;3.50;;;20.60;51.20;;;;;;4933400;28;87690;-85
2022/01/14 07:32:00;;;;;;;4.50;3.40;;;20.60;51.50;;;;;;4931999;28;87434;-84
2022/01/14 07:34:26;;;;;;;6.20;3.65;;;20.60;51.40;;;;;;4931687;28;88383;-84
2022/01/14 07:36:52;;;;;;;5.25;3.55;;;20.60;51.50;;;;;;4931109;28;88678;-82
2022/01/14 07:39:19;;;;;;;6.25;3.88;;;20.60;51.10;;;;;;4914305;28;91236;-82
2022/01/14 07:41:46;;;;;;;5.32;3.80;;;20.60;51.30;;;;;;4932811;28;87769;-82
2022/01/14 07:44:12;;;;;;;9.23;4.05;;;20.60;51.90;;;;;;4931644;28;87349;-82
2022/01/14 07:46:41;;;;;;;13.02;4.85;;;20.60;51.00;;;;;;4932071;28;88040;-83
2022/01/14 07:49:09;;;;;;;6.13;3.97;;;20.60;50.60;;;;;;4914537;28;90286;-85
2022/01/14 07:51:35;;;;;;;13.70;4.27;;;20.50;51.10;;;;;;4936642;28;86922;-85
2022/01/14 07:54:05;;;;;;;12.65;4.25;;;20.50;50.50;;;;;;4932531;28;86771;-85
2022/01/14 07:56:32;;;;;;;8.95;4.15;;;20.50;50.80;;;;;;4928654;28;90426;-84
2022/01/14 07:58:58;;;;;;;14.93;5.65;;;20.50;51.10;;;;;;4932442;28;87613;-87
2022/01/14 08:01:24;;;;;;;17.63;6.53;;;20.50;50.60;;;;;;4934068;28;88269;-87
2022/01/14 08:03:49;;;;;;;17.38;5.60;;;20.60;50.40;;;;;;4934623;28;87284;-86
2022/01/14 08:06:15;;;;;;;23.88;8.50;;;20.60;50.40;;;;;;4934082;28;87526;-85
2022/01/14 08:08:41;;;;;;;14.23;7.38;;;20.50;48.20;;;;;;4932615;28;87849;-84
2022/01/14 08:11:06;;;;;;;17.00;5.70;;;20.50;50.20;;;;;;4931621;28;87705;-86
2022/01/14 08:13:33;;;;;;;21.92;6.45;;;20.50;52.60;;;;;;4929935;28;89425;-85
2022/01/14 08:15:59;;;;;;;20.15;6.35;;;20.60;52.30;;;;;;4907404;28;88981;-85
2022/01/14 08:18:25;;;;;;;21.02;6.05;;;20.60;52.20;;;;;;4913641;28;90514;-85
2022/01/14 08:20:51;;;;;;;18.60;6.63;;;20.60;52.60;;;;;;4930668;28;87255;-86
2022/01/14 08:23:19;;;;;;;16.15;5.43;;;20.60;52.30;;;;;;4932018;28;87942;-84
2022/01/14 08:25:45;;;;;;;16.45;6.38;;;20.60;52.40;;;;;;4931127;28;88703;-84
2022/01/14 08:28:10;;;;;;;18.02;5.70;;;20.60;53.10;;;;;;4931415;28;88807;-84
2022/01/14 08:30:36;;;;;;;14.60;6.07;;;20.70;52.70;;;;;;4914914;28;87665;-84
2022/01/14 08:33:02;;;;;;;14.88;6.05;;;20.70;52.90;;;;;;4904585;28;88245;-86
2022/01/14 08:35:37;;;;;;;19.35;6.25;;;20.70;52.40;;;;;;4929669;28;90569;-85
2022/01/14 08:38:02;;;;;;;19.45;7.15;;;20.70;52.70;;;;;;4930308;28;87819;-84
2022/01/14 08:40:28;;;;;;;15.57;6.70;;;20.70;52.50;;;;;;4930086;28;88045;-84
2022/01/14 08:42:54;;;;;;;21.25;6.38;;;20.70;52.20;;;;;;4931648;28;87149;-86
2022/01/14 08:45:21;;;;;;;16.90;6.57;;;20.70;52.10;;;;;;4930038;28;88357;-87
2022/01/14 08:47:52;;;;;;;13.02;5.68;;;20.70;52.20;;;;;;4931141;28;87474;-86
2022/01/14 08:50:19;;;;;;;12.82;6.30;;;20.70;52.70;;;;;;4929363;28;88953;-84
2022/01/14 08:52:45;;;;;;;12.57;6.35;;;20.80;52.30;;;;;;4929951;28;87503;-87
2022/01/14 08:55:10;;;;;;;18.40;6.68;;;20.70;52.30;;;;;;4927285;28;87927;-87
2022/01/14 08:57:36;;;;;;;20.85;6.45;;;20.70;52.50;;;;;;4929968;28;87752;-85
2022/01/14 09:00:02;;;;;;;20.83;6.72;;;20.80;52.40;;;;;;4929333;28;88559;-84
2022/01/14 09:02:28;;;;;;;13.93;6.22;;;20.80;52.20;;;;;;4911717;28;89428;-84
2022/01/14 09:04:54;;;;;;;15.30;6.15;;;20.70;52.60;;;;;;4928191;28;88591;-86
2022/01/14 09:07:19;;;;;;;17.52;7.78;;;20.70;52.70;;;;;;4927626;28;86658;-84
2022/01/14 09:09:45;;;;;;;14.68;6.40;;;20.70;48.90;;;;;;4929243;28;87404;-84
2022/01/14 09:12:24;;;;;;;;;;;;;;;;;;;;;
2022/01/14 09:14:49;;;;;;;15.27;6.38;;;20.70;51.50;;;;;;4928636;28;91465;-84
2022/01/14 09:17:17;;;;;;;16.75;7.30;;;20.70;51.70;;;;;;4928020;28;88142;-84
2022/01/14 09:19:44;;;;;;;17.42;8.13;;;20.70;52.00;;;;;;4928980;28;87347;-83
2022/01/14 09:22:15;;;;;;;20.45;8.48;;;20.70;49.90;;;;;;4928846;28;87994;-83
2022/01/14 09:24:41;;;;;;;18.50;8.73;;;20.70;49.70;;;;;;4926063;28;88959;-83
2022/01/14 09:27:07;;;;;;;20.95;7.72;;;20.70;50.30;;;;;;4926461;28;87787;-83
2022/01/14 09:29:33;;;;;;;18.67;6.43;;;20.70;51.00;;;;;;4927012;28;88302;-83
2022/01/14 09:31:58;;;;;;;14.68;7.18;;;20.70;51.50;;;;;;4926432;28;87295;-83
2022/01/14 09:34:24;;;;;;;14.45;7.10;;;20.80;51.80;;;;;;4927660;28;88211;-83
2022/01/14 09:36:49;;;;;;;13.48;7.20;;;20.70;51.60;;;;;;4927528;28;89148;-83
2022/01/14 09:39:15;;;;;;;19.30;7.55;;;20.80;51.50;;;;;;4927355;28;88798;-83
2022/01/14 09:41:41;;;;;;;18.15;7.63;;;20.80;51.30;;;;;;4928732;28;87891;-84
2022/01/14 09:44:06;;;;;;;17.85;7.20;;;20.80;51.50;;;;;;4888567;28;1200507;-84
2022/01/14 09:46:32;;;;;;;16.60;6.97;;;20.80;52.00;;;;;;4930518;28;87603;-85
2022/01/14 09:48:58;;;;;;;14.63;6.80;;;20.80;51.80;;;;;;4931073;28;87407;-83
2022/01/14 09:51:32;;;;;;;22.42;8.32;;;20.80;51.50;;;;;;4929218;28;87814;-84
2022/01/14 09:53:58;;;;;;;18.63;7.95;;;20.80;50.80;;;;;;4910459;28;90510;-84
2022/01/14 09:56:24;;;;;;;22.35;8.05;;;20.80;51.90;;;;;;4903597;28;88203;-84
2022/01/14 09:58:51;;;;;;;18.08;7.90;;;20.90;52.50;;;;;;4928780;28;87748;-85
2022/01/14 10:01:22;;;;;;;18.88;8.68;;;20.90;51.90;;;;;;4927683;28;89434;-84
2022/01/14 10:03:54;;;;;;;16.88;7.75;;;20.90;52.00;;;;;;4929485;28;88930;-84
2022/01/14 10:06:45;;;;;;;17.05;7.95;;;20.90;52.20;;;;;;4929266;28;88539;-84
2022/01/14 10:09:20;;;;;;;18.02;8.15;;;20.90;51.80;;;;;;4929630;28;87911;-85
2022/01/14 10:12:16;;;;;;;15.82;7.43;;;20.90;52.00;;;;;;4930517;28;87877;-84
2022/01/14 10:14:58;;;;;;;16.38;7.60;;;20.90;52.00;;;;;;4922336;28;87537;-84
2022/01/14 10:17:33;;;;;;;18.50;9.25;;;20.90;52.50;;;;;;4930253;28;87789;-84
2022/01/14 10:19:59;;;;;;;12.60;8.15;;;20.80;50.20;;;;;;4928516;28;87689;-85
2022/01/14 10:22:31;;;;;;;18.23;8.27;;;20.80;52.10;;;;;;4929855;28;87154;-84
2022/01/14 10:25:10;;;;;;;18.02;8.13;;;20.80;51.90;;;;;;4912023;28;90395;-85
2022/01/14 10:27:44;;;;;;;24.67;9.77;;;20.80;52.80;;;;;;4929213;28;87947;-85
2022/01/14 10:30:20;;;;;;;29.85;10.98;;;20.80;53.40;;;;;;4928458;28;89294;-85
2022/01/14 10:33:10;;;;;;;22.83;9.07;;;20.80;53.90;;;;;;4931830;28;87759;-84
2022/01/14 10:35:41;;;;;;;21.88;9.90;;;20.80;54.10;;;;;;4931284;28;90675;-85
2022/01/14 10:38:09;;;;;;;23.70;11.05;;;20.80;54.40;;;;;;4932385;28;87929;-84
2022/01/14 10:40:41;;;;;;;20.42;10.18;;;20.80;53.20;;;;;;4915393;28;87370;-84
2022/01/14 10:43:09;;;;;;;19.95;9.38;;;20.80;53.20;;;;;;4932836;28;87025;-85
2022/01/14 10:45:35;;;;;;;17.85;9.02;;;20.80;53.80;;;;;;4932551;28;90481;-85
2022/01/14 10:48:17;;;;;;;21.60;9.48;;;20.80;54.30;;;;;;4933193;28;87904;-85
2022/01/14 10:51:01;;;;;;;19.20;8.65;;;20.80;54.50;;;;;;4916178;28;87844;-84
2022/01/14 10:53:32;;;;;;;19.13;10.05;;;20.80;54.90;;;;;;4933416;28;87904;-85
2022/01/14 10:56:03;;;;;;;23.55;9.52;;;20.90;55.40;;;;;;4934150;28;88375;-85
2022/01/14 10:58:38;;;;;;;16.85;8.85;;;20.80;55.70;;;;;;4932540;28;91291;-83
2022/01/14 11:01:05;;;;;;;21.40;9.48;;;20.90;56.20;;;;;;4916528;28;87824;-84
2022/01/14 11:03:36;;;;;;;20.63;9.13;;;20.80;56.20;;;;;;4916142;28;89300;-84
2022/01/14 11:06:40;;;;;;;19.17;9.32;;;20.90;56.80;;;;;;4932839;28;87655;-85
2022/01/14 11:09:07;;;;;;;24.63;9.80;;;20.90;57.00;;;;;;4876101;28;90600;-84
2022/01/14 11:11:35;;;;;;;19.92;9.13;;;20.90;56.90;;;;;;4932089;28;87315;-85
2022/01/14 11:14:01;;;;;;;18.58;8.95;;;20.90;56.90;;;;;;4917648;28;89311;-85
2022/01/14 11:16:27;;;;;;;18.52;9.57;;;20.90;57.00;;;;;;4933191;28;88478;-84
2022/01/14 11:18:57;;;;;;;16.85;9.43;;;20.90;57.40;;;;;;4933111;28;87909;-85
2022/01/14 11:24:14;;;;;;;21.95;8.20;;;20.90;56.80;;;;;;4933062;28;87867;-86
2022/01/14 11:26:43;;;;;;;16.55;8.45;;;20.90;56.80;;;;;;4931815;28;87134;-84
2022/01/14 11:29:12;;;;;;;17.38;9.32;;;20.90;56.20;;;;;;4932454;28;87995;-85
2022/01/14 11:31:39;;;;;;;20.83;8.70;;;20.90;55.50;;;;;;4932670;28;87750;-84
2022/01/14 11:34:29;;;;;;;18.73;9.60;;;20.90;56.30;;;;;;4932710;28;87567;-85
2022/01/14 11:36:56;;;;;;;18.88;9.75;;;20.90;66.20;;;;;;4923172;28;89875;-84
2022/01/14 11:39:35;;;;;;;19.95;10.57;;;20.90;70.80;;;;;;4931792;28;87822;-85
2022/01/14 11:42:08;;;;;;;25.10;11.95;;;20.90;69.10;;;;;;4929325;28;87816;-84
2022/01/14 11:44:43;;;;;;;23.52;13.43;;;20.90;64.10;;;;;;4963812;22;87929;-82
2022/01/14 11:47:28;;;;;;;24.83;11.98;;;20.90;64.10;;;;;;4941985;28;91327;-82
2022/01/14 11:49:59;;;;;;;23.17;11.95;;;20.90;61.10;;;;;;4938401;28;88283;-83
2022/01/14 11:52:40;;;;;;;18.90;10.25;;;20.90;58.80;;;;;;4943033;28;86989;-79
2022/01/14 11:55:21;;;;;;;20.63;10.95;;;20.80;58.30;;;;;;4940480;28;88102;-82
2022/01/14 11:57:50;;;;;;;19.77;9.73;;;20.90;58.00;;;;;;4941769;28;88143;-86
2022/01/14 12:00:25;;;;;;;21.13;9.50;;;20.90;58.30;;;;;;4940804;28;87937;-83
2022/01/14 12:02:58;;;;;;;16.95;9.43;;;20.90;58.70;;;;;;4943202;28;87340;-86
2022/01/14 12:05:24;;;;;;;19.40;9.35;;;20.90;58.90;;;;;;4925505;28;89119;-86
2022/01/14 12:08:05;;;;;;;14.98;9.05;;;20.90;59.00;;;;;;4943338;28;87621;-86
2022/01/14 12:10:33;;;;;;;18.52;9.13;;;20.90;58.70;;;;;;4944033;28;87807;-83
2022/01/14 12:18:59;;;;;;;18.13;8.73;;;20.90;58.40;;;;;;4941421;28;88079;-85
2022/01/14 12:21:42;;;;;;;15.43;8.88;;;20.90;57.80;;;;;;4940690;28;87372;-85
2022/01/14 12:24:17;;;;;;;11.13;6.90;;;20.90;57.90;;;;;;4940782;28;87559;-84
2022/01/14 12:26:52;;;;;;;13.90;7.70;;;20.90;57.90;;;;;;4927338;28;89751;-83
2022/01/14 12:29:18;;;;;;;13.75;9.07;;;20.90;57.00;;;;;;4940994;28;88361;-85
2022/01/14 12:32:13;;;;;;;13.43;7.85;;;20.90;57.00;;;;;;4944638;28;87478;-81
2022/01/14 12:34:55;;;;;;;12.20;7.25;;;20.90;55.80;;;;;;4926674;28;87990;-84
2022/01/14 12:37:27;;;;;;;13.38;7.22;;;20.80;55.00;;;;;;4933263;28;89111;-83
2022/01/14 12:39:54;;;;;;;13.68;7.55;;;20.90;52.30;;;;;;4943112;28;89052;-83
2022/01/14 12:42:22;;;;;;;18.27;8.10;;;20.90;50.20;;;;;;4942182;28;90068;-84
2022/01/14 12:44:54;;;;;;;12.27;7.32;;;21.00;52.60;;;;;;4927001;28;88167;-82
2022/01/14 12:47:30;;;;;;;14.10;7.78;;;21.00;50.40;;;;;;4942503;28;86922;-81
2022/01/14 12:50:01;;;;;;;15.88;8.30;;;21.00;49.50;;;;;;4943670;28;87379;-83
2022/01/14 12:52:37;;;;;;;10.65;7.18;;;21.10;48.00;;;;;;4943889;28;87103;-83
2022/01/14 12:55:05;;;;;;;13.48;7.53;;;21.10;47.10;;;;;;4944841;28;87081;-82
2022/01/14 12:57:31;;;;;;;11.50;7.88;;;21.10;46.60;;;;;;4942357;28;88386;-84
2022/01/14 12:59:56;;;;;;;16.58;7.95;;;21.10;47.50;;;;;;4941975;28;88476;-81
2022/01/14 13:02:29;;;;;;;11.85;8.13;;;21.10;47.60;;;;;;4944375;28;87676;-82
2022/01/14 13:05:05;;;;;;;16.05;8.90;;;21.10;47.30;;;;;;4945065;28;87882;-83
2022/01/14 13:07:32;;;;;;;17.58;8.40;;;21.20;50.40;;;;;;4941908;28;87445;-84
2022/01/14 13:09:58;;;;;;;17.33;8.88;;;21.10;51.50;;;;;;4939922;28;87479;-83
2022/01/14 13:12:34;;;;;;;14.50;7.97;;;21.10;49.40;;;;;;4941906;28;87691;-85
2022/01/14 13:15:02;;;;;;;15.13;8.82;;;21.10;48.20;;;;;;4926596;28;87172;-84
2022/01/14 13:17:42;;;;;;;20.98;8.90;;;21.10;50.20;;;;;;4947141;28;87414;-83
2022/01/14 13:20:16;;;;;;;16.30;8.95;;;21.10;50.60;;;;;;4944446;28;87883;-84
2022/01/14 13:23:07;;;;;;;16.02;8.68;;;21.00;50.00;;;;;;4945208;28;87453;-83
2022/01/14 13:25:33;;;;;;;17.10;9.77;;;21.10;49.50;;;;;;4944283;28;87439;-85